createdAt,value
2023-04-03T00:00:56.660Z,99766.59
2023-04-03T00:03:24.369Z,99758.81
2023-04-03T00:05:51.329Z,99764.97
2023-04-03T00:08:18.506Z,99759.75
2023-04-03T00:10:45.456Z,99773.78
2023-04-03T00:13:13.188Z,99781.63
2023-04-03T00:15:41.208Z,99782.53
2023-04-03T00:18:08.572Z,99785.22
2023-04-03T00:20:36.230Z,99780.88
2023-04-03T00:23:03.949Z,99780.94
2023-04-03T00:25:31.030Z,99764.34
2023-04-03T00:27:58.082Z,99775.59
2023-04-03T00:30:25.116Z,99779.09
2023-04-03T00:32:53.146Z,99779.09
2023-04-03T00:35:22.158Z,99761.66
2023-04-03T00:37:51.966Z,99773.00
2023-04-03T00:40:20.546Z,99780.81
2023-04-03T00:42:49.656Z,99780.75
2023-04-03T00:45:28.461Z,99779.81
2023-04-03T00:47:57.132Z,99777.22
2023-04-03T00:50:24.478Z,99780.56
2023-04-03T00:52:52.190Z,99769.09
2023-04-03T00:55:19.403Z,99725.34
2023-04-03T00:57:47.997Z,99775.13
2023-04-03T01:00:19.828Z,99784.69
2023-04-03T01:02:46.968Z,99786.31
2023-04-03T01:05:17.412Z,99783.72
2023-04-03T01:07:46.198Z,99775.88
2023-04-03T01:10:16.567Z,99781.00
2023-04-03T01:12:46.918Z,99774.81
2023-04-03T01:15:21.530Z,99754.53
2023-04-03T01:17:57.557Z,99776.16
2023-04-03T01:20:37.352Z,99780.38
2023-04-03T01:23:10.737Z,99775.16
2023-04-03T01:25:47.509Z,99761.97
2023-04-03T01:28:18.951Z,99769.81
2023-04-03T01:30:52.465Z,99754.03
2023-04-03T01:33:19.720Z,99782.69
2023-04-03T01:35:48.259Z,99730.16
2023-04-03T01:38:16.110Z,99790.25
2023-04-03T01:40:43.688Z,99788.50
2023-04-03T01:43:11.237Z,99785.97
2023-04-03T01:45:38.343Z,99788.53
2023-04-03T01:48:06.176Z,99785.91
2023-04-03T01:50:34.065Z,99750.09
2023-04-03T01:53:01.557Z,99776.41
2023-04-03T01:55:28.789Z,99782.47
2023-04-03T01:57:56.144Z,99777.28
2023-04-03T02:00:23.271Z,99777.28
2023-04-03T02:02:51.052Z,99766.78
2023-04-03T02:05:18.041Z,99782.50
2023-04-03T02:07:45.132Z,99765.13
2023-04-03T02:10:12.279Z,99779.91
2023-04-03T02:12:39.487Z,99770.00
2023-04-03T02:15:07.097Z,99788.94
2023-04-03T02:17:37.805Z,99781.03
2023-04-03T02:20:05.432Z,99787.06
2023-04-03T02:22:34.016Z,99767.81
2023-04-03T02:25:01.648Z,99771.50
2023-04-03T02:27:28.876Z,99777.50
2023-04-03T02:29:55.862Z,99787.84
2023-04-03T02:32:22.924Z,99786.13
2023-04-03T02:34:50.006Z,99787.00
2023-04-03T02:37:17.765Z,99772.28
2023-04-03T02:39:46.885Z,99782.78
2023-04-03T02:42:14.496Z,99787.00
2023-04-03T02:44:41.601Z,99789.44
2023-04-03T02:47:10.189Z,99791.94
2023-04-03T02:49:37.335Z,99792.81
2023-04-03T02:52:04.514Z,99779.72
2023-04-03T02:54:31.762Z,99788.53
2023-04-03T02:57:02.828Z,99791.00
2023-04-03T02:59:29.869Z,99795.13
2023-04-03T03:01:57.498Z,99780.19
2023-04-03T03:04:24.534Z,99777.44
2023-04-03T03:06:51.964Z,99800.72
2023-04-03T03:09:19.253Z,99798.97
2023-04-03T03:11:46.578Z,99804.09
2023-04-03T03:14:13.530Z,99792.78
2023-04-03T03:16:40.591Z,99796.97
2023-04-03T03:19:07.888Z,99806.56
2023-04-03T03:21:35.376Z,99808.13
2023-04-03T03:24:02.655Z,99810.50
2023-04-03T03:26:30.427Z,99806.75
2023-04-03T03:28:57.346Z,99816.25
2023-04-03T03:31:24.736Z,99814.50
2023-04-03T03:33:51.667Z,99818.78
2023-04-03T03:36:19.766Z,99787.41
2023-04-03T03:38:46.716Z,99750.66
2023-04-03T03:41:13.662Z,99821.53
2023-04-03T03:43:42.795Z,99825.06
2023-04-03T03:46:09.853Z,99814.66
2023-04-03T03:48:36.874Z,99824.34
2023-04-03T03:51:04.007Z,99819.16
2023-04-03T03:53:35.282Z,99823.59
2023-04-03T03:56:06.836Z,99821.09
2023-04-03T03:58:36.649Z,99814.38
2023-04-03T04:01:06.944Z,99802.44
2023-04-03T04:03:38.926Z,99807.03
2023-04-03T04:06:07.815Z,99807.47
2023-04-03T04:08:35.362Z,99813.19
2023-04-03T04:11:04.114Z,99804.81
2023-04-03T04:13:31.346Z,99812.06
2023-04-03T04:15:59.140Z,99803.38
2023-04-03T04:18:26.227Z,99813.97
2023-04-03T04:20:53.232Z,99812.38
2023-04-03T04:23:20.491Z,99811.59
2023-04-03T04:25:50.281Z,99816.91
2023-04-03T04:28:18.338Z,99811.72
2023-04-03T04:30:47.475Z,99817.97
2023-04-03T04:33:16.285Z,99824.91
2023-04-03T04:35:45.751Z,99828.47
2023-04-03T04:38:12.806Z,99821.59
2023-04-03T04:40:39.929Z,99821.59
2023-04-03T04:43:07.625Z,99830.25
2023-04-03T04:45:35.879Z,99822.56
2023-04-03T04:48:03.420Z,99812.25
2023-04-03T04:50:30.681Z,99819.31
2023-04-03T04:52:57.921Z,99827.44
2023-04-03T04:55:25.126Z,99832.75
2023-04-03T04:57:52.530Z,99826.84
2023-04-03T05:00:21.484Z,99829.66
2023-04-03T05:02:48.822Z,99833.25
2023-04-03T05:05:16.639Z,99837.78
2023-04-03T05:07:43.678Z,99840.59
2023-04-03T05:10:11.191Z,99815.56
2023-04-03T05:12:39.788Z,99821.00
2023-04-03T05:15:07.623Z,99835.94
2023-04-03T05:17:35.430Z,99821.28
2023-04-03T05:20:05.524Z,99831.09
2023-04-03T05:22:32.906Z,99813.09
2023-04-03T05:25:06.677Z,99829.00
2023-04-03T05:27:33.728Z,99819.53
2023-04-03T05:30:01.095Z,99835.31
2023-04-03T05:32:30.450Z,99832.72
2023-04-03T05:35:12.313Z,99833.41
2023-04-03T05:37:41.139Z,99830.88
2023-04-03T05:40:09.557Z,99828.25
2023-04-03T05:42:39.494Z,99829.94
2023-04-03T05:45:07.287Z,99832.53
2023-04-03T05:47:34.526Z,99836.00
2023-04-03T05:50:01.849Z,99831.56
2023-04-03T05:52:34.172Z,99824.53
2023-04-03T05:55:01.703Z,99831.47
2023-04-03T05:57:31.241Z,99841.91
2023-04-03T05:59:58.491Z,99829.69
2023-04-03T06:02:27.288Z,99812.09
2023-04-03T06:04:54.718Z,99847.06
2023-04-03T06:07:24.942Z,99855.75
2023-04-03T06:09:52.470Z,99856.88
2023-04-03T06:12:19.957Z,99854.44
2023-04-03T06:14:47.732Z,99855.47
2023-04-03T06:17:17.166Z,99867.66
2023-04-03T06:19:44.338Z,99873.06
2023-04-03T06:22:12.763Z,99873.19
2023-04-03T06:24:40.248Z,99868.00
2023-04-03T06:27:07.353Z,99841.06
2023-04-03T06:29:34.313Z,99871.75
2023-04-03T06:32:01.482Z,99867.59
2023-04-03T06:34:28.707Z,99866.03
2023-04-03T06:36:55.653Z,99845.22
2023-04-03T06:39:23.881Z,99818.31
2023-04-03T06:41:52.037Z,99856.69
2023-04-03T06:44:26.540Z,99867.16
2023-04-03T06:46:55.477Z,99862.84
2023-04-03T06:49:22.743Z,99859.38
2023-04-03T06:51:49.769Z,99833.19
2023-04-03T06:54:16.721Z,99851.56
2023-04-03T06:56:43.881Z,99858.56
2023-04-03T06:59:13.980Z,99868.19
2023-04-03T07:01:41.856Z,99865.66
2023-04-03T07:04:09.436Z,99847.28
2023-04-03T07:06:36.777Z,99866.50
2023-04-03T07:09:04.044Z,99862.13
2023-04-03T07:11:31.439Z,99861.31
2023-04-03T07:13:58.761Z,99839.50
2023-04-03T07:16:25.852Z,99864.84
2023-04-03T07:18:52.894Z,99857.06
2023-04-03T07:21:19.925Z,99859.69
2023-04-03T07:23:46.896Z,99866.69
2023-04-03T07:26:13.965Z,99865.84
2023-04-03T07:28:42.477Z,99864.13
2023-04-03T07:31:14.714Z,99809.25
2023-04-03T07:33:42.705Z,99865.81
2023-04-03T07:36:11.916Z,99874.34
2023-04-03T07:38:38.962Z,99875.88
2023-04-03T07:41:06.936Z,99873.88
2023-04-03T07:43:35.406Z,99873.59
2023-04-03T07:46:02.489Z,99864.72
2023-04-03T07:48:29.588Z,99868.91
2023-04-03T07:51:01.335Z,99872.25
2023-04-03T07:53:28.974Z,99873.97
2023-04-03T07:55:58.250Z,99872.47
2023-04-03T07:58:25.563Z,99863.84
2023-04-03T08:00:53.030Z,99863.81
2023-04-03T08:03:20.148Z,99855.94
2023-04-03T08:05:49.180Z,99865.38
2023-04-03T08:08:21.261Z,99856.59
2023-04-03T08:10:53.496Z,99861.78
2023-04-03T08:13:21.741Z,99851.44
2023-04-03T08:15:48.942Z,99862.69
2023-04-03T08:18:17.098Z,99866.25
2023-04-03T08:20:44.865Z,99865.94
2023-04-03T08:23:12.282Z,99853.63
2023-04-03T08:25:43.097Z,99864.75
2023-04-03T08:28:11.916Z,99867.69
2023-04-03T08:30:43.466Z,99865.84
2023-04-03T08:33:11.433Z,99874.81
2023-04-03T08:35:42.815Z,99863.53
2023-04-03T08:38:11.293Z,99869.34
2023-04-03T08:40:38.943Z,99867.44
2023-04-03T08:43:41.165Z,99877.69
2023-04-03T08:46:13.639Z,99882.56
2023-04-03T08:48:44.859Z,99841.88
2023-04-03T08:51:16.689Z,99881.88
2023-04-03T08:53:57.642Z,99881.84
2023-04-03T08:56:26.634Z,99869.09
2023-04-03T08:58:59.193Z,99885.72
2023-04-03T09:01:33.477Z,99878.88
2023-04-03T09:04:02.630Z,99887.59
2023-04-03T09:06:34.110Z,99900.03
2023-04-03T09:09:13.297Z,99882.44
2023-04-03T09:12:17.796Z,99894.00
2023-04-03T09:14:57.109Z,99902.03
2023-04-03T09:17:36.352Z,99901.03
2023-04-03T09:20:36.912Z,99900.88
2023-04-03T09:23:27.096Z,99882.41
2023-04-03T09:25:59.165Z,99895.66
2023-04-03T09:28:26.701Z,99897.72
2023-04-03T09:30:55.068Z,99915.34
2023-04-03T09:33:23.679Z,99906.63
2023-04-03T09:35:52.251Z,99899.69
2023-04-03T09:38:22.939Z,99870.84
2023-04-03T09:41:03.854Z,99900.50
2023-04-03T09:43:32.765Z,99913.63
2023-04-03T09:46:25.964Z,99910.94
2023-04-03T09:49:08.763Z,99916.13
2023-04-03T09:51:37.623Z,99918.66
2023-04-03T09:54:27.281Z,99924.56
2023-04-03T09:56:57.406Z,99907.22
2023-04-03T09:59:24.690Z,99916.88
2023-04-03T10:02:03.132Z,99912.41
2023-04-03T10:04:40.453Z,99924.47
2023-04-03T10:07:38.303Z,99905.38
2023-04-03T10:10:21.168Z,99915.81
2023-04-03T10:12:49.172Z,99874.03
2023-04-03T10:15:22.647Z,99921.09
2023-04-03T10:18:06.539Z,99922.88
2023-04-03T10:20:48.180Z,99918.50
2023-04-03T10:23:34.256Z,99921.19
2023-04-03T10:26:13.296Z,99914.25
2023-04-03T10:28:53.629Z,99919.41
2023-04-03T10:31:29.488Z,99921.09
2023-04-03T10:35:02.383Z,99926.31
2023-04-03T10:37:56.233Z,99916.78
2023-04-03T10:40:53.279Z,99929.03
2023-04-03T10:43:37.454Z,99929.97
2023-04-03T10:46:22.232Z,99929.16
2023-04-03T10:49:13.916Z,99932.75
2023-04-03T10:51:48.680Z,99915.34
2023-04-03T10:54:27.743Z,99937.22
2023-04-03T10:57:11.677Z,99916.41
2023-04-03T10:59:48.378Z,99926.84
2023-04-03T11:02:30.177Z,99918.09
2023-04-03T11:05:06.286Z,99925.94
2023-04-03T11:07:43.763Z,99877.19
2023-04-03T11:10:25.284Z,99924.19
2023-04-03T11:13:13.112Z,99921.47
2023-04-03T11:15:41.045Z,99924.06
2023-04-03T11:18:15.269Z,99920.53
2023-04-03T11:20:49.008Z,99903.03
2023-04-03T11:23:30.395Z,99921.28
2023-04-03T11:26:10.255Z,99909.25
2023-04-03T11:28:38.292Z,99914.41
2023-04-03T11:31:10.991Z,99917.94
2023-04-03T11:33:43.194Z,99921.34
2023-04-03T11:36:34.583Z,99925.81
2023-04-03T11:39:17.696Z,99913.63
2023-04-03T11:41:44.758Z,99904.03
2023-04-03T11:44:35.676Z,99912.75
2023-04-03T11:47:03.836Z,99916.16
2023-04-03T11:50:03.913Z,99910.88
2023-04-03T11:52:43.128Z,99908.31
2023-04-03T11:55:23.515Z,99917.94
2023-04-03T11:57:59.344Z,99911.81
2023-04-03T12:00:47.940Z,99911.00
2023-04-03T12:03:27.112Z,99908.38
2023-04-03T12:06:06.024Z,99911.84
2023-04-03T12:08:45.518Z,99908.31
2023-04-03T12:11:12.438Z,99913.50
2023-04-03T12:13:43.661Z,99914.41
2023-04-03T12:16:29.948Z,99919.75
2023-04-03T12:19:17.006Z,99917.13
2023-04-03T12:21:49.844Z,99917.19
2023-04-03T12:24:16.979Z,99911.97
2023-04-03T12:27:02.917Z,99900.69
2023-04-03T12:29:36.417Z,99918.09
2023-04-03T12:32:09.471Z,99898.91
2023-04-03T12:34:58.242Z,99915.47
2023-04-03T12:37:56.654Z,99917.22
2023-04-03T12:40:38.163Z,99912.88
2023-04-03T12:43:40.698Z,99912.88
2023-04-03T12:46:12.654Z,99922.47
2023-04-03T12:48:45.503Z,99917.25
2023-04-03T12:51:39.228Z,99917.28
2023-04-03T12:54:17.592Z,99917.28
2023-04-03T12:56:44.972Z,99911.19
2023-04-03T12:59:27.801Z,99922.50
2023-04-03T13:01:57.260Z,99924.22
2023-04-03T13:04:24.875Z,99914.66
2023-04-03T13:06:52.337Z,99919.88
2023-04-03T13:09:31.930Z,99925.09
2023-04-03T13:12:10.788Z,99912.06
2023-04-03T13:14:38.356Z,99917.28
2023-04-03T13:17:13.833Z,99929.44
2023-04-03T13:19:42.897Z,99928.59
2023-04-03T13:22:28.763Z,99927.72
2023-04-03T13:24:58.999Z,99926.88
2023-04-03T13:27:26.752Z,99922.47
2023-04-03T13:29:58.187Z,99932.09
2023-04-03T13:32:29.829Z,99898.97
2023-04-03T13:35:00.455Z,99925.09
2023-04-03T13:37:34.805Z,99933.81
2023-04-03T13:40:07.791Z,99932.09
2023-04-03T13:42:37.954Z,99917.25
2023-04-03T13:45:20.916Z,99921.63
2023-04-03T13:47:50.472Z,99932.94
2023-04-03T13:50:22.375Z,99920.75
2023-04-03T13:52:55.321Z,99931.22
2023-04-03T13:55:27.192Z,99926.84
2023-04-03T13:57:58.243Z,99935.56
2023-04-03T14:00:40.410Z,99932.09
2023-04-03T14:03:35.003Z,99937.28
2023-04-03T14:06:02.779Z,99939.94
2023-04-03T14:08:42.265Z,99931.22
2023-04-03T14:11:17.340Z,99939.03
2023-04-03T14:13:46.354Z,99925.97
2023-04-03T14:16:19.592Z,99879.69
2023-04-03T14:18:47.851Z,99923.25
2023-04-03T14:21:17.190Z,99934.56
2023-04-03T14:23:44.999Z,99878.78
2023-04-03T14:26:18.860Z,99932.78
2023-04-03T14:28:47.521Z,99917.97
2023-04-03T14:31:16.974Z,99934.50
2023-04-03T14:33:44.115Z,99936.22
2023-04-03T14:36:16.593Z,99921.38
2023-04-03T14:38:45.601Z,99937.97
2023-04-03T14:41:17.950Z,99940.59
2023-04-03T14:43:46.775Z,99932.78
2023-04-03T14:46:15.330Z,99883.09
2023-04-03T14:48:43.097Z,99917.97
2023-04-03T14:51:13.426Z,99943.25
2023-04-03T14:53:41.917Z,99944.13
2023-04-03T14:56:29.345Z,99938.00
2023-04-03T14:59:03.358Z,99931.88
2023-04-03T15:01:31.654Z,99940.63
2023-04-03T15:03:58.820Z,99938.88
2023-04-03T15:06:26.527Z,99937.97
2023-04-03T15:08:53.552Z,99934.50
2023-04-03T15:11:21.155Z,99930.13
2023-04-03T15:13:48.400Z,99941.47
2023-04-03T15:16:20.662Z,99934.44
2023-04-03T15:18:48.436Z,99943.16
2023-04-03T15:21:15.433Z,99939.69
2023-04-03T15:23:43.760Z,99942.28
2023-04-03T15:26:11.231Z,99936.16
2023-04-03T15:28:43.254Z,99943.16
2023-04-03T15:31:10.604Z,99942.25
2023-04-03T15:33:38.192Z,99940.50
2023-04-03T15:36:22.603Z,99937.88
2023-04-03T15:38:56.190Z,99924.81
2023-04-03T15:41:23.291Z,99933.53
2023-04-03T15:43:50.440Z,99924.72
2023-04-03T15:46:17.533Z,99940.44
2023-04-03T15:48:45.818Z,99943.06
2023-04-03T15:51:12.806Z,99948.31
2023-04-03T15:53:39.825Z,99927.38
2023-04-03T15:56:06.886Z,99947.41
2023-04-03T15:58:34.089Z,99945.66
2023-04-03T16:01:01.632Z,99948.28
2023-04-03T16:03:29.139Z,99936.06
2023-04-03T16:05:56.543Z,99942.16
2023-04-03T16:08:23.787Z,99934.25
2023-04-03T16:10:50.857Z,99949.94
2023-04-03T16:13:17.895Z,99959.47
2023-04-03T16:15:44.947Z,99961.16
2023-04-03T16:18:12.077Z,99960.28
2023-04-03T16:20:39.338Z,99958.53
2023-04-03T16:23:06.676Z,99969.88
2023-04-03T16:25:34.136Z,99954.16
2023-04-03T16:28:01.154Z,99971.53
2023-04-03T16:30:29.226Z,99969.72
2023-04-03T16:32:57.519Z,99973.19
2023-04-03T16:35:24.672Z,99977.53
2023-04-03T16:37:51.806Z,99985.34
2023-04-03T16:40:18.990Z,99987.09
2023-04-03T16:42:47.045Z,99971.34
2023-04-03T16:45:14.068Z,99997.41
2023-04-03T16:47:41.240Z,99979.94
2023-04-03T16:50:08.905Z,99991.28
2023-04-03T16:52:36.314Z,100001.69
2023-04-03T16:55:03.481Z,99988.56
2023-04-03T16:57:30.659Z,99997.28
2023-04-03T16:59:57.724Z,99999.84
2023-04-03T17:02:28.763Z,100012.00
2023-04-03T17:04:55.813Z,100013.72
2023-04-03T17:07:24.791Z,100005.88
2023-04-03T17:09:52.705Z,100008.44
2023-04-03T17:12:19.744Z,100010.19
2023-04-03T17:14:47.913Z,100000.53
2023-04-03T17:17:16.021Z,100014.47
2023-04-03T17:19:44.129Z,100015.25
2023-04-03T17:22:11.690Z,99993.44
2023-04-03T17:24:38.721Z,100011.72
2023-04-03T17:27:05.736Z,100016.94
2023-04-03T17:29:32.770Z,100005.50
2023-04-03T17:31:59.841Z,100017.66
2023-04-03T17:34:26.829Z,100022.88
2023-04-03T17:36:53.873Z,100015.91
2023-04-03T17:39:20.994Z,100014.97
2023-04-03T17:41:49.411Z,100008.91
2023-04-03T17:44:16.474Z,100009.69
2023-04-03T17:46:43.716Z,100013.97
2023-04-03T17:49:14.913Z,99990.31
2023-04-03T17:51:42.526Z,99995.56
2023-04-03T17:54:09.636Z,100005.97
2023-04-03T17:56:36.727Z,100012.91
2023-04-03T17:59:03.750Z,100007.63
2023-04-03T18:01:33.945Z,100010.25
2023-04-03T18:04:03.383Z,100009.34
2023-04-03T18:06:38.813Z,100013.69
2023-04-03T18:09:10.043Z,100009.28
2023-04-03T18:11:37.449Z,100008.41
2023-04-03T18:14:07.833Z,100018.75
2023-04-03T18:16:35.801Z,100013.50
2023-04-03T18:19:21.078Z,99979.44
2023-04-03T18:21:48.849Z,100013.50
2023-04-03T18:24:18.738Z,100011.69
2023-04-03T18:26:50.908Z,100005.53
2023-04-03T18:29:19.422Z,100022.94
2023-04-03T18:31:49.791Z,100012.44
2023-04-03T18:34:16.940Z,100019.38
2023-04-03T18:36:44.039Z,100014.94
2023-04-03T18:39:11.391Z,100003.50
2023-04-03T18:41:38.479Z,100018.41
2023-04-03T18:44:08.341Z,100021.75
2023-04-03T18:46:35.543Z,100000.69
2023-04-03T18:49:03.277Z,100028.44
2023-04-03T18:51:30.470Z,100023.25
2023-04-03T18:53:57.456Z,100026.69
2023-04-03T18:56:24.498Z,100031.78
2023-04-03T18:58:51.579Z,100026.56
2023-04-03T19:01:19.161Z,100020.44
2023-04-03T19:03:46.676Z,100024.75
2023-04-03T19:06:13.802Z,100018.66
2023-04-03T19:08:41.261Z,100009.75
2023-04-03T19:11:08.343Z,100008.91
2023-04-03T19:13:36.816Z,100015.88
2023-04-03T19:16:06.783Z,100015.78
2023-04-03T19:18:33.858Z,99957.09
2023-04-03T19:21:00.984Z,100007.75
2023-04-03T19:23:28.050Z,100009.56
2023-04-03T19:26:06.214Z,100013.91
2023-04-03T19:28:34.026Z,100004.41
2023-04-03T19:31:02.022Z,100001.75
2023-04-03T19:33:29.072Z,99964.09
2023-04-03T19:35:56.595Z,100010.41
2023-04-03T19:38:23.634Z,100010.31
2023-04-03T19:40:50.682Z,100003.38
2023-04-03T19:43:17.732Z,99987.59
2023-04-03T19:45:46.551Z,99983.16
2023-04-03T19:48:13.897Z,99971.00
2023-04-03T19:50:41.516Z,99993.63
2023-04-03T19:53:14.528Z,99990.94
2023-04-03T19:55:41.735Z,99979.56
2023-04-03T19:58:08.788Z,100009.22
2023-04-03T20:00:35.792Z,100004.06
2023-04-03T20:03:02.942Z,99995.34
2023-04-03T20:05:29.958Z,99965.72
2023-04-03T20:07:56.954Z,99996.31
2023-04-03T20:10:24.237Z,99992.84
2023-04-03T20:12:51.352Z,99997.97
2023-04-03T20:15:18.457Z,99997.88
2023-04-03T20:17:45.551Z,99992.63
2023-04-03T20:20:13.542Z,99976.88
2023-04-03T20:22:41.283Z,99980.31
2023-04-03T20:25:12.289Z,99965.47
2023-04-03T20:27:40.364Z,99978.53
2023-04-03T20:30:13.224Z,99981.06
2023-04-03T20:32:40.215Z,99968.81
2023-04-03T20:35:08.084Z,99917.22
2023-04-03T20:37:36.187Z,99974.88
2023-04-03T20:40:03.977Z,99972.25
2023-04-03T20:42:31.042Z,99960.91
2023-04-03T20:44:58.413Z,99962.72
2023-04-03T20:47:25.551Z,99961.97
2023-04-03T20:49:53.841Z,99922.75
2023-04-03T20:52:20.948Z,99944.66
2023-04-03T20:54:48.066Z,99958.66
2023-04-03T20:57:15.530Z,99963.72
2023-04-03T20:59:42.767Z,99947.81
2023-04-03T21:02:11.441Z,99968.66
2023-04-03T21:04:53.060Z,99976.38
2023-04-03T21:07:58.767Z,99972.06
2023-04-03T21:11:03.251Z,99970.28
2023-04-03T21:14:07.613Z,99969.41
2023-04-03T21:16:37.435Z,99964.94
2023-04-03T21:19:10.308Z,99948.38
2023-04-03T21:21:37.578Z,99965.09
2023-04-03T21:24:07.214Z,99959.94
2023-04-03T21:26:34.543Z,99959.16
2023-04-03T21:29:01.873Z,99959.16
2023-04-03T21:31:48.690Z,99963.59
2023-04-03T21:34:16.311Z,99960.84
2023-04-03T21:36:44.743Z,99956.28
2023-04-03T21:39:12.363Z,99965.94
2023-04-03T21:41:39.347Z,99964.97
2023-04-03T21:44:06.383Z,99963.22
2023-04-03T21:46:33.446Z,99963.19
2023-04-03T21:49:01.502Z,99957.84
2023-04-03T21:51:29.046Z,99957.75
2023-04-03T21:53:56.521Z,99957.88
2023-04-03T21:56:24.485Z,99958.69
2023-04-03T21:58:52.295Z,99945.63
2023-04-03T22:01:20.760Z,99964.75
2023-04-03T22:03:47.851Z,99897.44
2023-04-03T22:06:16.603Z,99899.06
2023-04-03T22:08:44.104Z,99959.34
2023-04-03T22:11:14.112Z,99957.59
2023-04-03T22:13:42.485Z,99951.44
2023-04-03T22:16:12.212Z,99949.72
2023-04-03T22:18:39.239Z,99946.25
2023-04-03T22:21:09.440Z,99946.28
2023-04-03T22:23:37.762Z,99934.09
2023-04-03T22:26:07.551Z,99940.16
2023-04-03T22:28:40.161Z,99931.31
2023-04-03T22:31:07.942Z,99904.97
2023-04-03T22:33:39.126Z,99932.91
2023-04-03T22:36:08.086Z,99932.00
2023-04-03T22:38:35.522Z,99919.66
2023-04-03T22:41:04.686Z,99922.25
2023-04-03T22:43:33.726Z,99931.75
2023-04-03T22:46:02.811Z,99936.06
2023-04-03T22:48:31.021Z,99934.31
2023-04-03T22:51:00.059Z,99931.63
2023-04-03T22:53:33.250Z,99926.28
2023-04-03T22:56:02.137Z,99933.19
2023-04-03T22:58:29.665Z,99928.88
2023-04-03T23:01:11.025Z,99906.38
2023-04-03T23:03:39.842Z,99918.53
2023-04-03T23:06:08.194Z,99913.97
2023-04-03T23:08:38.095Z,99901.91
2023-04-03T23:11:07.407Z,99922.78
2023-04-03T23:13:34.516Z,99920.13
2023-04-03T23:16:03.108Z,99923.53
2023-04-03T23:18:31.847Z,99917.50
2023-04-03T23:20:59.640Z,99923.59
2023-04-03T23:23:27.242Z,99908.78
2023-04-03T23:25:55.274Z,99926.19
2023-04-03T23:28:22.933Z,99920.09
2023-04-03T23:30:51.194Z,99905.34
2023-04-03T23:33:18.159Z,99904.50
2023-04-03T23:35:51.226Z,99908.78
2023-04-03T23:38:18.717Z,99894.84
2023-04-03T23:40:47.284Z,99903.53
2023-04-03T23:43:14.438Z,99894.72
2023-04-03T23:45:41.942Z,99908.69
2023-04-03T23:48:09.047Z,99906.09
2023-04-03T23:50:37.368Z,99913.81
2023-04-03T23:53:04.550Z,99914.69
2023-04-03T23:55:31.812Z,99912.97
2023-04-03T23:57:58.769Z,99922.50
